Garber, Illinois
Current Conditions -  °F | °C
As of 5:50 PM on Sunday 21 Dec 2014 (Local Time) from KTIP Reporting Station
Overcast Overcast  
Wind Chill: 28°   Ceiling: 3700
Heat Index: 33°   Visibility: 10mi
Dew Point: 31°   Wind: 6mph
Humidity: 90%   Direction: 120°ESE
Pressure: 30.08"   Gusts: NA
Location:  40.4643°N, 88.3467°W
Report Text: KTIP 212350Z AUTO 12005KT 10SM OVC037 01/M01 A3008 RMK AO2 T00081007 10050 20008
Loading
Personal Weather Stations






























Interactive Weather Map New forecast layout! Learn more

10-Day Weather Forecast

Advertisements
Track Severe Weather on mobile